Time;durP1;ratioP1;P1;durP2;ratioP2;P2;SDS_P1;SDS_P2;PMS_P1;PMS_P2;Temp;Humidity;BMP_temperature;BMP_pressure;BME280_temperature;BME280_humidity;BME280_pressure;Samples;Min_cycle;Max_cycle;Signal;HPM_P1;HPM_P2
2021/10/11 04:42:10;;;;;;;31.50;16.15;;;;;;;0.43;86.68;101092.74;1688785;83;21696;-31
2021/10/11 04:44:36;;;;;;;29.30;15.50;;;;;;;0.48;86.82;101093.88;1731063;81;21045;-31
2021/10/11 04:47:03;;;;;;;30.45;15.55;;;;;;;0.51;86.99;101087.98;1738140;81;20982;-31
2021/10/11 04:49:30;;;;;;;27.37;15.78;;;;;;;0.55;87.09;101089.94;1692996;83;21057;-36
2021/10/11 04:51:57;;;;;;;30.25;17.70;;;;;;;0.59;87.21;101086.72;1732877;81;21496;-34
2021/10/11 04:54:23;;;;;;;32.10;16.50;;;;;;;0.61;87.29;101085.10;1731435;81;21029;-36
2021/10/11 04:56:50;;;;;;;32.83;18.65;;;;;;;0.65;87.33;101084.87;1734013;81;20989;-35
2021/10/11 04:59:17;;;;;;;35.15;18.98;;;;;;;0.67;87.33;101090.57;1734347;81;21456;-32
2021/10/11 05:01:44;;;;;;;41.13;21.05;;;;;;;0.73;87.52;101087.02;1737329;81;21677;-31
2021/10/11 05:04:12;;;;;;;50.67;23.92;;;;;;;0.79;87.81;101084.77;1733030;81;21616;-32
2021/10/11 05:06:40;;;;;;;43.87;24.18;;;;;;;0.86;87.91;101082.09;1733090;81;21532;-35
2021/10/11 05:09:07;;;;;;;55.08;26.95;;;;;;;0.95;88.04;101083.87;1728785;81;21069;-36
2021/10/11 05:11:34;;;;;;;57.95;27.48;;;;;;;1.05;88.00;101082.66;1729453;81;21017;-36
2021/10/11 05:14:01;;;;;;;49.58;28.65;;;;;;;1.16;87.88;101080.59;1731966;81;21016;-36
2021/10/11 05:16:32;;;;;;;59.33;28.10;;;;;;;1.28;87.79;101082.52;1686440;84;21056;-31
2021/10/11 05:18:59;;;;;;;49.27;25.95;;;;;;;1.39;87.64;101077.45;1687451;83;21018;-31
2021/10/11 05:21:26;;;;;;;45.85;25.37;;;;;;;1.52;87.50;101077.27;1687412;84;21418;-35
2021/10/11 05:23:54;;;;;;;49.60;26.48;;;;;;;1.66;87.31;101080.91;1729638;81;21093;-35
2021/10/11 05:33:43;;;;;;;38.08;20.35;;;;;;;2.02;86.70;101067.57;1718636;82;21183;-35
2021/10/11 05:36:10;;;;;;;44.55;20.60;;;;;;;2.16;86.41;101072.10;1717328;82;21715;-31
2021/10/11 05:38:37;;;;;;;37.45;19.62;;;;;;;2.24;86.20;101066.87;1719426;82;21076;-31
2021/10/11 05:41:04;;;;;;;32.67;19.12;;;;;;;2.33;86.12;101056.97;1720053;82;21600;-32
2021/10/11 05:43:30;;;;;;;34.85;18.55;;;;;;;2.44;86.08;101058.34;1720030;82;21077;-36
2021/10/11 05:45:58;;;;;;;37.93;19.98;;;;;;;2.56;85.93;101058.00;1719206;82;21596;-36
2021/10/11 05:48:25;;;;;;;37.70;19.23;;;;;;;2.65;85.88;101057.97;1674701;83;21010;-35
2021/10/11 05:50:52;;;;;;;43.95;19.67;;;;;;;2.75;85.93;101057.98;1725043;81;21045;-36
2021/10/11 05:53:19;;;;;;;32.98;18.05;;;;;;;2.89;86.01;101065.91;1727097;81;21067;-36
2021/10/11 05:55:45;;;;;;;25.70;17.80;;;;;;;3.01;85.91;101065.55;1723929;81;20974;-32
2021/10/11 05:58:12;;;;;;;40.55;17.80;;;;;;;3.15;85.82;101055.80;1681631;83;20999;-32
2021/10/11 06:00:41;;;;;;;37.20;19.52;;;;;;;3.28;85.79;101052.89;1729706;81;21017;-32
2021/10/11 06:03:09;;;;;;;31.73;18.05;;;;;;;3.42;85.63;101054.74;1726618;81;21520;-33
2021/10/11 06:05:36;;;;;;;28.50;18.07;;;;;;;3.59;85.33;101051.55;1684486;84;21013;-32
2021/10/11 06:08:05;;;;;;;29.65;18.42;;;;;;;3.74;84.81;101049.58;1731657;81;20998;-32
2021/10/11 06:10:32;;;;;;;31.57;18.80;;;;;;;3.86;84.49;101051.35;1730542;82;21061;-37
2021/10/11 06:12:59;;;;;;;35.28;18.32;;;;;;;3.99;84.49;101060.05;1731135;81;21097;-36
2021/10/11 06:15:26;;;;;;;29.42;17.60;;;;;;;4.14;84.60;101066.66;1703884;81;21128;-36
2021/10/11 06:17:53;;;;;;;31.65;18.92;;;;;;;4.33;84.70;101069.11;1726875;81;21109;-36
2021/10/11 06:20:20;;;;;;;33.30;16.85;;;;;;;4.52;84.51;101066.39;1723475;81;21025;-36
2021/10/11 06:22:48;;;;;;;35.20;18.75;;;;;;;4.73;84.05;101068.86;1728041;81;20994;-31
2021/10/11 06:25:14;;;;;;;25.35;16.50;;;;;;;4.90;83.39;101062.98;1719007;82;21691;-32
2021/10/11 06:27:41;;;;;;;28.47;17.40;;;;;;;5.06;83.03;101057.91;1732786;81;20978;-32
2021/10/11 06:30:09;;;;;;;30.70;16.67;;;;;;;5.21;82.77;101055.82;1726200;81;21030;-32
2021/10/11 06:32:36;;;;;;;28.40;16.40;;;;;;;5.38;82.71;101052.91;1729845;81;21513;-32
2021/10/11 06:35:03;;;;;;;33.18;18.35;;;;;;;5.53;82.65;101045.63;1730574;81;21675;-36
2021/10/11 06:37:30;;;;;;;29.48;17.55;;;;;;;5.72;82.68;101045.80;1726064;81;21566;-36
2021/10/11 06:39:56;;;;;;;41.85;18.55;;;;;;;5.90;82.56;101045.48;1684789;84;21506;-32
2021/10/11 06:42:23;;;;;;;29.72;17.90;;;;;;;6.11;82.29;101044.88;1683578;84;21525;-33
2021/10/11 06:44:50;;;;;;;31.93;18.55;;;;;;;6.32;81.78;101049.42;1728170;82;21112;-32
2021/10/11 06:47:17;;;;;;;30.95;17.95;;;;;;;6.53;81.10;101041.33;1724183;82;21033;-32
2021/10/11 06:49:46;;;;;;;33.35;19.07;;;;;;;6.73;80.23;101040.60;1734831;82;21032;-37
2021/10/11 06:52:14;;;;;;;32.45;16.32;;;;;;;6.92;79.42;101035.05;1722933;82;21466;-36
2021/10/11 06:54:41;;;;;;;33.45;18.23;;;;;;;7.12;78.91;101042.05;1724326;82;21616;-37
2021/10/11 06:57:08;;;;;;;28.98;16.82;;;;;;;7.28;78.28;101034.65;1727502;82;21054;-37
2021/10/11 06:59:38;;;;;;;30.77;16.50;;;;;;;7.45;77.75;101026.83;1725578;82;21392;-36
2021/10/11 07:02:07;;;;;;;25.33;16.67;;;;;;;7.63;77.05;101025.09;1702956;82;21442;-32
2021/10/11 07:04:34;;;;;;;28.52;14.45;;;;;;;7.82;75.17;101022.47;1729463;81;21174;-32
2021/10/11 07:07:01;;;;;;;24.43;14.40;;;;;;;8.04;73.43;101019.93;1722576;82;21552;-32
2021/10/11 07:09:30;;;;;;;22.77;13.58;;;;;;;8.22;71.98;101014.67;1680023;84;21592;-31
2021/10/11 07:12:00;;;;;;;20.52;13.48;;;;;;;8.41;70.95;101015.12;1722925;82;21101;-31
2021/10/11 07:14:27;;;;;;;23.62;13.62;;;;;;;8.59;70.00;101009.38;1723583;82;21084;-31
2021/10/11 07:16:54;;;;;;;23.38;14.10;;;;;;;8.77;68.98;101000.16;1722652;82;21446;-32
2021/10/11 07:19:20;;;;;;;23.67;14.18;;;;;;;8.95;68.01;101005.27;1677763;84;21045;-32
2021/10/11 07:21:53;;;;;;;22.35;12.23;;;;;;;9.11;67.04;100994.24;1676564;83;21017;-36
2021/10/11 07:24:20;;;;;;;;;;;;;;;9.28;65.82;100990.61;1727020;82;21742;-36
2021/10/11 07:26:46;;;;;;;21.20;12.00;;;;;;;9.43;64.41;100993.44;1722701;82;20139;-36
2021/10/11 07:29:13;;;;;;;18.85;11.80;;;;;;;9.56;63.63;100986.66;1726932;82;21032;-31
2021/10/11 07:31:40;;;;;;;20.62;10.90;;;;;;;9.70;62.83;100977.31;1721851;82;20969;-32
2021/10/11 07:34:07;;;;;;;17.25;10.25;;;;;;;9.84;61.68;100975.76;1679110;84;21081;-31
2021/10/11 07:36:33;;;;;;;14.70;9.38;;;;;;;9.98;60.75;100972.05;1721189;82;20986;-31
2021/10/11 07:39:01;;;;;;;16.35;10.60;;;;;;;10.12;59.31;100970.90;1681247;84;21545;-32
2021/10/11 07:41:28;;;;;;;16.15;9.63;;;;;;;10.27;58.37;100971.13;1724896;81;21580;-32
2021/10/11 07:43:55;;;;;;;18.37;10.15;;;;;;;10.39;57.35;100963.42;1728849;82;21532;-35
2021/10/11 07:46:25;;;;;;;18.02;9.30;;;;;;;10.52;57.26;100966.17;1724503;81;21021;-36
2021/10/11 07:48:53;;;;;;;25.12;9.95;;;;;;;10.67;56.05;100966.34;1729340;81;21084;-36
2021/10/11 07:51:20;;;;;;;16.55;10.20;;;;;;;10.82;56.00;100955.13;1732660;81;21007;-34
2021/10/11 08:18:42;;;;;;;16.12;6.90;;;;;;;12.34;47.86;100925.07;1710708;82;21244;-36
2021/10/11 08:21:10;;;;;;;13.70;7.03;;;;;;;12.50;47.60;100931.24;1674701;83;21652;-36
2021/10/11 08:23:41;;;;;;;14.25;6.53;;;;;;;12.62;46.51;100919.45;1673624;84;21080;-36
2021/10/11 08:26:08;;;;;;;12.45;7.87;;;;;;;12.73;46.49;100920.34;1683594;83;21021;-36
2021/10/11 08:28:37;;;;;;;10.03;6.12;;;;;;;12.87;46.09;100919.47;1674484;83;21061;-36
2021/10/11 08:31:04;;;;;;;18.37;7.08;;;;;;;12.98;45.62;100925.60;1670566;84;21016;-36
2021/10/11 08:33:30;;;;;;;11.05;6.58;;;;;;;13.07;44.16;100922.12;1718537;82;21679;-36
2021/10/11 08:35:57;;;;;;;12.98;6.10;;;;;;;13.14;43.17;100919.91;1720348;82;21041;-35
2021/10/11 08:38:23;;;;;;;11.85;6.05;;;;;;;13.21;43.46;100915.12;1717932;82;20976;-36
2021/10/11 08:40:50;;;;;;;10.88;6.60;;;;;;;13.29;43.09;100912.06;1714659;82;21531;-36
2021/10/11 08:43:17;;;;;;;11.83;5.90;;;;;;;13.39;43.46;100910.28;1719134;82;21396;-36
2021/10/11 08:50:01;;;;;;;16.17;6.75;;;;;;;13.54;43.43;100899.74;1708610;82;21035;-31
2021/10/11 08:52:28;;;;;;;14.80;6.62;;;;;;;13.69;42.26;100893.13;1672508;85;21037;-36
2021/10/11 08:54:55;;;;;;;8.38;6.03;;;;;;;13.77;42.05;100893.97;1673651;83;21081;-36
2021/10/11 08:57:27;;;;;;;13.85;6.47;;;;;;;13.88;41.91;100888.67;1665952;84;20991;-36
2021/10/11 09:00:07;;;;;;;19.55;6.03;;;;;;;13.97;41.63;100885.98;1671711;83;21041;-36
2021/10/11 09:02:34;;;;;;;17.92;6.92;;;;;;;14.04;41.88;100888.17;1598303;88;21093;-36
2021/10/11 09:05:01;;;;;;;9.45;5.70;;;;;;;14.11;41.35;100883.30;1629047;86;21143;-36
2021/10/11 09:07:30;;;;;;;9.35;5.90;;;;;;;14.21;41.74;100882.38;1628579;87;21085;-36
2021/10/11 09:09:59;;;;;;;10.50;5.60;;;;;;;14.29;40.26;100882.33;1595722;88;21662;-36
2021/10/11 09:12:28;;;;;;;13.95;5.53;;;;;;;14.32;39.23;100875.71;1599500;88;21069;-36
2021/10/11 09:15:12;;;;;;;7.67;5.58;;;;;;;14.36;39.04;100874.37;1632604;87;21126;-35
2021/10/11 09:17:46;;;;;;;10.78;5.90;;;;;;;14.41;38.28;100875.66;1631148;86;21099;-35
2021/10/11 09:20:21;;;;;;;8.33;4.85;;;;;;;14.47;38.67;100866.89;1630696;86;21506;-36
2021/10/11 09:22:53;;;;;;;15.25;5.20;;;;;;;14.52;38.72;100863.34;1629086;86;20991;-36
2021/10/11 09:25:21;;;;;;;10.90;5.65;;;;;;;14.59;38.97;100855.81;1605923;87;21052;-33
2021/10/11 09:31:16;;;;;;;11.38;5.17;;;;;;;14.72;38.80;100854.41;1545898;90;21116;-31
2021/10/11 09:33:45;;;;;;;12.33;6.20;;;;;;;14.82;39.24;100854.77;1552243;90;21113;-31
2021/10/11 09:36:19;;;;;;;10.60;5.65;;;;;;;14.91;38.25;100849.43;1566835;89;21051;-31
2021/10/11 09:38:47;;;;;;;14.50;5.80;;;;;;;14.97;38.59;100847.19;1581999;84;21663;-31
2021/10/11 09:41:18;;;;;;;11.53;5.80;;;;;;;15.02;38.11;100842.75;1697917;82;21013;-32
2021/10/11 09:43:46;;;;;;;13.83;5.92;;;;;;;15.08;38.61;100840.05;1653283;84;21112;-32
2021/10/11 09:46:14;;;;;;;11.97;6.35;;;;;;;15.12;38.70;100845.25;1627919;85;21043;-36
2021/10/11 09:48:54;;;;;;;12.20;6.08;;;;;;;15.18;38.37;100844.31;1648707;85;21033;-37
2021/10/11 09:51:21;;;;;;;12.28;5.80;;;;;;;15.25;37.97;100844.70;1675775;83;21588;-37
2021/10/11 09:53:50;;;;;;;12.35;6.30;;;;;;;15.31;38.33;100834.09;1649164;86;21561;-37
2021/10/11 09:56:17;;;;;;;10.10;6.47;;;;;;;15.42;38.36;100834.86;1640140;86;21024;-37
2021/10/11 09:58:46;;;;;;;7.80;6.17;;;;;;;15.62;38.45;100830.69;1631205;85;21589;-37
2021/10/11 10:01:15;;;;;;;15.15;7.00;;;;;;;15.87;38.07;100827.72;1627749;84;21565;-36
2021/10/11 10:03:42;;;;;;;13.65;7.35;;;;;;;16.16;37.58;100818.08;1699956;83;21317;-34
2021/10/11 10:06:12;;;;;;;11.83;8.10;;;;;;;16.43;37.60;100816.80;1692664;83;21546;-36
2021/10/11 10:08:40;;;;;;;14.07;7.83;;;;;;;16.74;37.17;100813.23;1665669;84;21595;-34
2021/10/11 10:11:09;;;;;;;14.13;8.03;;;;;;;17.24;36.57;100810.13;1702641;82;20999;-33
2021/10/11 10:13:50;;;;;;;19.12;7.87;;;;;;;17.88;34.98;100796.05;1686887;82;21933;-34
2021/10/11 10:16:19;;;;;;;15.30;7.83;;;;;;;18.45;34.14;100794.29;1659279;85;21086;-32
2021/10/11 10:18:46;;;;;;;14.33;7.58;;;;;;;19.00;33.47;100794.22;1638077;85;21601;-33
2021/10/11 10:21:16;;;;;;;10.70;7.03;;;;;;;19.48;33.00;100788.02;1629195;87;21042;-33
2021/10/11 10:23:55;;;;;;;9.23;6.17;;;;;;;19.98;32.45;100785.65;1633627;85;21077;-33
2021/10/11 10:26:35;;;;;;;10.35;5.78;;;;;;;20.48;31.30;100767.26;1595126;88;21081;-33
2021/10/11 10:29:16;;;;;;;12.23;5.92;;;;;;;21.06;30.68;100770.56;1588426;88;21604;-32
2021/10/11 10:31:43;;;;;;;11.22;5.65;;;;;;;21.41;29.90;100761.78;1615950;87;21368;-30
2021/10/11 10:34:25;;;;;;;6.03;4.42;;;;;;;21.62;30.04;100755.63;1638586;85;21055;-31
2021/10/11 10:37:09;;;;;;;13.30;5.75;;;;;;;22.00;28.94;100753.27;1601722;87;21425;-32
2021/10/11 10:39:45;;;;;;;26.05;5.85;;;;;;;22.35;28.47;100754.53;1633336;85;21136;-32
2021/10/11 10:42:34;;;;;;;11.10;6.70;;;;;;;22.84;27.56;100760.44;1595619;88;21050;-32
2021/10/11 10:45:22;;;;;;;13.98;6.60;;;;;;;23.18;26.95;100742.97;1646318;85;21710;-32
2021/10/11 10:47:55;;;;;;;14.30;6.67;;;;;;;23.45;26.53;100735.52;1647881;85;21059;-33
2021/10/11 10:50:34;;;;;;;13.80;6.08;;;;;;;23.56;26.53;100733.21;1642637;86;21090;-32
2021/10/11 10:53:39;;;;;;;10.30;5.95;;;;;;;23.74;26.05;100728.84;1645506;85;20998;-33
2021/10/11 10:56:30;;;;;;;7.97;5.03;;;;;;;23.85;26.07;100726.52;1645692;85;21601;-32
2021/10/11 10:59:57;;;;;;;12.43;6.17;;;;;;;23.99;25.79;100721.36;1644457;85;21058;-32
2021/10/11 11:02:37;;;;;;;12.63;6.30;;;;;;;24.12;25.45;100721.61;1652362;82;21009;-37
2021/10/11 11:05:16;;;;;;;16.05;5.70;;;;;;;24.19;25.51;100719.05;1705480;82;21095;-37
2021/10/11 11:08:18;;;;;;;11.57;6.17;;;;;;;24.32;25.45;100707.27;1707084;83;20977;-33
2021/10/11 11:12:11;;;;;;;8.68;5.67;;;;;;;24.31;25.23;100710.89;1704150;82;21674;-32
2021/10/11 11:16:06;;;;;;;13.90;6.28;;;;;;;24.19;24.85;100707.03;1703156;82;21395;-33
2021/10/11 11:19:12;;;;;;;7.47;5.95;;;;;;;23.82;25.03;100699.47;1705281;82;21044;-34
2021/10/11 11:25:10;;;;;;;13.03;5.80;;;;;;;23.42;25.34;100702.27;1698801;83;21096;-32
2021/10/11 11:27:55;;;;;;;7.50;5.58;;;;;;;23.13;25.79;100692.94;1708005;83;21121;-36
2021/10/11 11:30:34;;;;;;;9.85;5.15;;;;;;;22.66;26.11;100697.23;1664964;84;21895;-38
2021/10/11 11:33:22;;;;;;;16.62;6.53;;;;;;;22.12;26.55;100691.99;1661987;84;21071;-36
2021/10/11 11:35:56;;;;;;;10.27;5.70;;;;;;;21.83;27.28;100696.68;1706693;82;21032;-37
2021/10/11 11:38:38;;;;;;;10.90;5.80;;;;;;;21.47;27.59;100689.69;1705565;82;21037;-37
2021/10/11 11:41:06;;;;;;;10.95;6.28;;;;;;;21.02;28.16;100694.91;1706579;82;21965;-38
2021/10/11 11:43:40;;;;;;;12.23;6.05;;;;;;;20.73;28.38;100684.87;1703056;82;21362;-38
2021/10/11 11:46:08;;;;;;;12.70;6.08;;;;;;;20.55;28.83;100680.20;1705300;82;21107;-37
2021/10/11 11:48:37;;;;;;;7.03;5.08;;;;;;;20.55;28.89;100672.23;1703632;82;21068;-37
2021/10/11 11:51:14;;;;;;;8.10;5.12;;;;;;;20.49;29.08;100669.80;1704371;82;21608;-38
2021/10/11 11:53:41;;;;;;;13.53;5.33;;;;;;;20.26;29.12;100667.44;1704723;82;21104;-38
2021/10/11 11:56:09;;;;;;;7.15;4.95;;;;;;;20.04;29.29;100668.61;1703261;82;21000;-37
2021/10/11 11:58:38;;;;;;;11.75;4.72;;;;;;;19.80;29.86;100660.13;1710378;82;21068;-37
2021/10/11 12:01:17;;;;;;;7.80;4.87;;;;;;;19.64;30.14;100655.29;1700510;82;21067;-33
2021/10/11 12:03:57;;;;;;;9.18;5.37;;;;;;;19.62;30.05;100651.83;1707958;82;21084;-33
2021/10/11 12:06:29;;;;;;;9.48;5.28;;;;;;;19.64;29.95;100644.67;1695152;82;21797;-37
2021/10/11 12:08:57;;;;;;;9.65;5.33;;;;;;;19.60;29.93;100639.08;1703435;84;21112;-37
2021/10/11 12:11:24;;;;;;;12.82;5.33;;;;;;;19.56;29.76;100631.22;1687852;84;21032;-37
2021/10/11 12:13:58;;;;;;;11.75;5.03;;;;;;;19.51;30.16;100637.13;1703200;82;21123;-37
2021/10/11 12:16:26;;;;;;;12.37;5.95;;;;;;;19.52;29.85;100636.20;1699962;84;21379;-37
2021/10/11 12:18:54;;;;;;;8.18;4.47;;;;;;;19.51;30.22;100633.15;1670732;85;21098;-33
2021/10/11 12:21:31;;;;;;;6.55;5.10;;;;;;;19.54;30.14;100622.42;1701168;82;21619;-37
2021/10/11 12:24:17;;;;;;;7.42;4.50;;;;;;;19.57;30.26;100622.34;1698514;84;21109;-37
2021/10/11 12:26:55;;;;;;;7.58;4.97;;;;;;;19.54;30.49;100615.36;1695486;82;21025;-37
2021/10/11 12:29:24;;;;;;;10.80;4.87;;;;;;;19.46;30.09;100616.04;1706119;82;21029;-37
2021/10/11 12:32:00;;;;;;;6.50;4.65;;;;;;;19.27;30.55;100614.42;1699675;82;21203;-37
2021/10/11 12:34:36;;;;;;;6.12;4.78;;;;;;;19.25;30.61;100612.29;1682961;84;21064;-37
2021/10/11 12:37:10;;;;;;;7.67;4.78;;;;;;;19.29;30.73;100614.38;1713198;82;20981;-37
2021/10/11 12:39:39;;;;;;;7.80;5.08;;;;;;;19.15;30.74;100610.83;1684508;84;21006;-37
2021/10/11 12:42:16;;;;;;;9.25;5.42;;;;;;;19.08;30.88;100611.93;1682396;83;21032;-37
2021/10/11 12:44:46;;;;;;;10.32;5.30;;;;;;;18.93;30.99;100609.27;1684404;84;21013;-37
2021/10/11 12:47:31;;;;;;;9.63;5.55;;;;;;;18.75;31.52;100604.50;1692224;82;21481;-37
2021/10/11 12:50:10;;;;;;;11.65;5.85;;;;;;;18.57;31.44;100604.53;1706986;82;21045;-37
2021/10/11 12:52:43;;;;;;;16.60;6.55;;;;;;;18.47;31.65;100610.53;1682399;84;21056;-37
2021/10/11 12:55:14;;;;;;;;;;;;;;;18.34;31.92;100611.79;1708681;82;21454;-37
2021/10/11 12:57:44;;;;;;;16.25;6.08;;;;;;;18.27;31.99;100615.06;1697879;84;20128;-37
2021/10/11 13:00:15;;;;;;;15.00;6.30;;;;;;;18.23;32.14;100606.77;1711993;82;21627;-37
2021/10/11 13:02:42;;;;;;;12.18;6.45;;;;;;;18.26;32.06;100602.73;1703183;84;20981;-37
2021/10/11 13:05:09;;;;;;;11.30;5.10;;;;;;;18.38;32.13;100601.96;1697087;82;21599;-37
2021/10/11 13:07:37;;;;;;;16.75;6.67;;;;;;;18.54;31.81;100594.02;1713998;82;21008;-33
2021/10/11 13:10:06;;;;;;;9.68;6.10;;;;;;;18.76;31.52;100599.15;1702794;82;21073;-37
2021/10/11 13:12:33;;;;;;;11.33;5.95;;;;;;;18.92;31.26;100593.41;1713461;84;21033;-37
2021/10/11 13:15:01;;;;;;;16.32;8.33;;;;;;;19.20;30.64;100599.63;1710739;84;21072;-36
2021/10/11 13:17:29;;;;;;;13.70;6.62;;;;;;;19.33;30.50;100589.03;1704647;82;21064;-32
2021/10/11 13:19:56;;;;;;;12.60;6.87;;;;;;;19.36;30.55;100584.08;1682112;84;21042;-36
2021/10/11 13:22:24;;;;;;;9.18;6.40;;;;;;;19.36;30.49;100577.45;1702593;82;21001;-32
2021/10/11 13:24:51;;;;;;;14.30;6.53;;;;;;;19.28;30.70;100571.06;1709917;84;21032;-35
2021/10/11 13:27:18;;;;;;;10.40;6.58;;;;;;;19.21;30.74;100570.86;1709352;84;20981;-32
